Time;durP1;ratioP1;P1;durP2;ratioP2;P2;SDS_P1;SDS_P2;PMS_P1;PMS_P2;Temp;Humidity;BMP_temperature;BMP_pressure;BME280_temperature;BME280_humidity;BME280_pressure;Samples;Min_cycle;Max_cycle;Signal;HPM_P1;HPM_P2
2022/03/19 00:01:36;;;;;;;27.97;19.00;;;5.30;61.60;;;;;;5006477;28;20290;-84
2022/03/19 00:04:04;;;;;;;24.30;18.70;;;5.30;61.60;;;;;;5008920;28;20200;-86
2022/03/19 00:06:32;;;;;;;23.90;18.50;;;5.30;61.90;;;;;;5017621;28;20219;-84
2022/03/19 00:08:59;;;;;;;26.27;18.87;;;5.20;61.80;;;;;;5013710;28;20187;-84
2022/03/19 00:11:28;;;;;;;26.80;19.23;;;5.20;62.50;;;;;;5007059;28;20238;-87
2022/03/19 00:13:59;;;;;;;25.13;18.37;;;5.20;62.80;;;;;;5005433;28;20215;-84
2022/03/19 00:16:26;;;;;;;26.20;19.07;;;5.20;63.00;;;;;;5010080;28;20239;-86
2022/03/19 00:18:53;;;;;;;23.97;18.03;;;5.20;63.50;;;;;;5011661;28;20219;-86
2022/03/19 00:21:21;;;;;;;24.63;18.40;;;5.20;63.20;;;;;;5008892;28;20662;-86
2022/03/19 00:23:50;;;;;;;29.43;20.40;;;5.10;64.50;;;;;;4993177;28;20193;-86
2022/03/19 00:26:18;;;;;;;25.20;19.30;;;5.00;65.00;;;;;;5015985;28;20253;-86
2022/03/19 00:28:48;;;;;;;24.47;18.50;;;5.10;65.30;;;;;;5010788;28;20295;-87
2022/03/19 00:31:15;;;;;;;27.20;19.97;;;5.00;65.30;;;;;;5017512;28;20226;-86
2022/03/19 00:33:43;;;;;;;27.80;19.23;;;5.00;66.30;;;;;;5019311;28;20314;-86
2022/03/19 00:36:13;;;;;;;27.70;20.20;;;5.00;66.80;;;;;;5015208;28;20230;-84
2022/03/19 00:38:40;;;;;;;27.67;20.17;;;5.00;66.80;;;;;;5012757;28;20217;-86
2022/03/19 00:41:08;;;;;;;24.70;18.63;;;4.90;67.70;;;;;;5008326;28;20777;-86
2022/03/19 00:43:36;;;;;;;27.10;19.63;;;4.90;68.60;;;;;;5016708;28;20219;-86
2022/03/19 00:46:05;;;;;;;26.23;19.03;;;4.90;69.60;;;;;;5017293;28;20639;-86
2022/03/19 00:48:35;;;;;;;27.53;20.37;;;4.90;69.60;;;;;;5018373;28;20221;-86
2022/03/19 00:51:02;;;;;;;27.60;20.47;;;4.90;69.60;;;;;;5021154;28;20298;-86
2022/03/19 00:53:29;;;;;;;27.40;20.03;;;4.90;69.60;;;;;;5017486;28;20267;-86
2022/03/19 00:55:57;;;;;;;26.73;20.07;;;4.90;69.60;;;;;;5022362;28;20223;-85
2022/03/19 00:58:24;;;;;;;29.63;20.33;;;4.80;69.50;;;;;;5015095;28;20214;-86
2022/03/19 01:00:51;;;;;;;29.97;21.07;;;4.80;69.50;;;;;;5023327;28;20247;-86
2022/03/19 01:03:20;;;;;;;27.83;20.33;;;4.80;69.50;;;;;;5018067;28;20319;-86
2022/03/19 01:05:48;;;;;;;27.17;21.37;;;4.70;69.40;;;;;;5023246;28;20230;-86
2022/03/19 01:08:16;;;;;;;29.03;20.60;;;4.70;69.50;;;;;;5024185;28;20199;-86
2022/03/19 01:10:43;;;;;;;30.47;21.73;;;4.80;69.60;;;;;;5019181;28;20294;-85
2022/03/19 01:13:11;;;;;;;27.80;21.33;;;4.80;69.50;;;;;;5019273;28;20222;-86
2022/03/19 01:15:38;;;;;;;30.50;22.43;;;4.70;69.50;;;;;;5016354;28;20226;-86
2022/03/19 01:18:06;;;;;;;27.80;21.63;;;4.70;69.90;;;;;;5021996;28;20236;-86
2022/03/19 01:20:35;;;;;;;30.60;22.23;;;4.70;69.90;;;;;;5020677;28;20218;-86
2022/03/19 01:23:02;;;;;;;29.97;23.13;;;4.60;71.70;;;;;;5020057;28;20230;-86
2022/03/19 01:25:30;;;;;;;31.23;23.10;;;4.60;72.40;;;;;;5017395;28;20204;-86
2022/03/19 01:27:57;;;;;;;30.50;22.10;;;4.60;73.20;;;;;;5021808;28;20234;-86
2022/03/19 01:30:26;;;;;;;28.43;22.33;;;4.60;73.30;;;;;;5024270;28;20241;-86
2022/03/19 01:32:56;;;;;;;32.87;23.60;;;4.50;74.10;;;;;;5016168;28;20223;-86
2022/03/19 01:35:23;;;;;;;32.70;24.23;;;4.50;74.90;;;;;;5022832;28;20598;-86
2022/03/19 01:37:52;;;;;;;33.97;23.97;;;4.50;75.40;;;;;;5019502;28;20245;-86
2022/03/19 01:40:21;;;;;;;33.47;23.60;;;4.40;75.60;;;;;;5021184;28;20199;-86
2022/03/19 01:42:50;;;;;;;33.60;23.97;;;4.50;76.00;;;;;;5016688;28;20341;-86
2022/03/19 01:45:20;;;;;;;34.83;24.60;;;4.50;75.90;;;;;;5022727;28;20271;-86
2022/03/19 01:47:48;;;;;;;36.60;25.43;;;4.50;76.20;;;;;;5015096;28;20229;-86
2022/03/19 01:50:16;;;;;;;36.07;24.63;;;4.40;76.60;;;;;;5023954;28;20202;-86
2022/03/19 01:52:44;;;;;;;36.10;26.07;;;4.50;76.80;;;;;;5023800;28;20246;-86
2022/03/19 01:55:15;;;;;;;38.80;25.43;;;4.40;76.70;;;;;;5026018;28;20226;-86
2022/03/19 01:57:46;;;;;;;35.47;26.17;;;4.40;77.50;;;;;;5018846;28;20227;-86
2022/03/19 02:00:16;;;;;;;38.27;26.50;;;4.30;77.90;;;;;;5027002;28;20238;-86
2022/03/19 02:02:45;;;;;;;37.23;26.87;;;4.30;78.50;;;;;;5021316;28;20265;-86
2022/03/19 02:05:16;;;;;;;37.13;27.07;;;4.30;78.60;;;;;;5028792;28;20199;-86
2022/03/19 02:07:45;;;;;;;39.50;27.37;;;4.20;79.40;;;;;;5024701;28;20282;-86
2022/03/19 02:10:15;;;;;;;42.30;29.20;;;4.20;79.80;;;;;;5026615;28;20191;-86
2022/03/19 02:12:44;;;;;;;43.03;29.30;;;4.20;80.80;;;;;;5024311;28;20579;-86
2022/03/19 02:15:13;;;;;;;41.13;29.43;;;4.20;80.80;;;;;;5027863;28;20210;-86
2022/03/19 02:17:41;;;;;;;46.50;29.53;;;4.20;81.10;;;;;;5020912;28;20249;-86
2022/03/19 02:20:09;;;;;;;44.40;29.83;;;4.20;81.50;;;;;;5019979;28;20206;-86
2022/03/19 02:22:37;;;;;;;44.60;30.80;;;4.20;81.80;;;;;;5021048;28;20223;-86
2022/03/19 02:27:53;;;;;;;48.13;31.87;;;4.00;83.10;;;;;;5024935;28;20635;-86
2022/03/19 02:30:20;;;;;;;48.73;32.30;;;4.00;84.00;;;;;;5030838;28;20207;-86
2022/03/19 02:32:50;;;;;;;48.93;32.93;;;3.90;85.00;;;;;;5027386;28;20253;-86
2022/03/19 02:35:18;;;;;;;47.47;32.87;;;3.90;85.50;;;;;;5025172;28;20282;-86
2022/03/19 02:37:48;;;;;;;49.23;33.90;;;3.90;85.50;;;;;;5019140;28;20231;-86
2022/03/19 02:40:19;;;;;;;50.20;33.77;;;3.80;86.00;;;;;;5024789;28;20262;-86
2022/03/19 02:45:30;;;;;;;49.33;34.77;;;3.80;87.40;;;;;;5018828;28;20215;-86
2022/03/19 02:48:01;;;;;;;54.03;35.70;;;3.80;88.30;;;;;;5021059;28;20199;-86
2022/03/19 02:50:36;;;;;;;54.10;36.70;;;3.80;88.20;;;;;;5021896;28;20275;-86
2022/03/19 02:53:05;;;;;;;55.30;36.80;;;3.80;88.20;;;;;;5023130;28;20597;-86
2022/03/19 02:55:35;;;;;;;57.33;37.77;;;3.70;88.20;;;;;;5017487;28;20242;-86
2022/03/19 02:58:03;;;;;;;54.63;37.60;;;3.70;89.00;;;;;;5025278;28;20203;-86
2022/03/19 03:00:31;;;;;;;59.17;38.90;;;3.60;89.90;;;;;;5008845;28;20227;-86
2022/03/19 03:03:00;;;;;;;60.73;38.30;;;3.70;89.60;;;;;;5040089;28;20286;-86
2022/03/19 03:05:29;;;;;;;58.37;38.00;;;3.60;90.10;;;;;;5016583;28;20211;-86
2022/03/19 03:07:57;;;;;;;60.07;39.37;;;3.60;90.20;;;;;;5026130;28;20226;-86
2022/03/19 03:10:25;;;;;;;58.03;38.00;;;3.60;90.40;;;;;;5026866;28;20286;-86
2022/03/19 03:12:54;;;;;;;55.83;37.93;;;3.60;90.30;;;;;;5011297;28;20253;-86
2022/03/19 03:15:23;;;;;;;52.57;35.93;;;3.60;90.20;;;;;;5031721;28;20225;-86
2022/03/19 03:17:51;;;;;;;58.47;37.83;;;3.60;90.00;;;;;;5026024;28;20253;-86
2022/03/19 03:20:18;;;;;;;55.33;37.23;;;3.50;90.10;;;;;;5012943;28;20199;-86
2022/03/19 03:22:46;;;;;;;58.33;36.70;;;3.50;90.20;;;;;;5022760;28;20531;-86
2022/03/19 03:25:14;;;;;;;58.50;37.77;;;3.40;90.40;;;;;;5022193;28;20782;-86
2022/03/19 03:27:42;;;;;;;54.10;36.63;;;3.30;90.40;;;;;;5013920;28;20238;-86
2022/03/19 03:30:12;;;;;;;57.50;37.27;;;3.20;90.90;;;;;;5021860;28;20227;-86
2022/03/19 03:32:39;;;;;;;54.93;35.73;;;3.20;90.90;;;;;;5018997;28;20227;-86
2022/03/19 03:35:07;;;;;;;51.97;35.60;;;3.30;90.80;;;;;;5022475;28;20195;-86
2022/03/19 03:37:37;;;;;;;55.03;35.60;;;3.30;90.50;;;;;;5023245;28;20290;-86
2022/03/19 03:40:06;;;;;;;51.60;34.17;;;3.30;90.50;;;;;;5035541;28;20286;-86
2022/03/19 03:42:42;;;;;;;52.07;35.03;;;3.20;90.50;;;;;;5025791;28;20262;-86
2022/03/19 03:45:15;;;;;;;55.83;36.37;;;3.20;90.50;;;;;;5026203;28;20203;-86
2022/03/19 03:47:43;;;;;;;54.57;36.90;;;3.00;90.80;;;;;;5027430;28;20231;-86
2022/03/19 03:50:13;;;;;;;55.77;36.87;;;2.90;91.60;;;;;;5025348;28;20286;-86
2022/03/19 03:52:41;;;;;;;61.13;39.53;;;2.80;91.70;;;;;;5026520;28;20327;-86
2022/03/19 03:55:09;;;;;;;57.87;38.93;;;2.70;92.00;;;;;;5016911;28;20975;-89
2022/03/19 03:57:37;;;;;;;59.10;38.17;;;2.70;92.50;;;;;;5013058;28;20306;-89
2022/03/19 04:00:05;;;;;;;61.67;39.17;;;2.80;92.40;;;;;;5006697;28;20745;-89
2022/03/19 04:02:34;;;;;;;62.80;40.60;;;2.80;92.40;;;;;;5010424;28;20313;-89
2022/03/19 04:05:01;;;;;;;58.23;37.80;;;2.70;92.40;;;;;;5008578;28;20254;-89
2022/03/19 04:07:29;;;;;;;61.43;39.10;;;2.80;92.40;;;;;;5011626;28;20723;-89
2022/03/19 04:09:56;;;;;;;62.03;40.00;;;2.80;92.30;;;;;;5012626;28;20290;-89
2022/03/19 04:12:23;;;;;;;63.73;38.63;;;2.90;92.20;;;;;;5008768;28;20249;-88
2022/03/19 04:14:51;;;;;;;58.23;38.23;;;2.90;91.90;;;;;;5006869;28;20302;-88
2022/03/19 04:17:18;;;;;;;60.73;39.03;;;2.90;91.90;;;;;;5015069;28;20247;-89
2022/03/19 04:19:48;;;;;;;56.00;37.53;;;2.90;91.90;;;;;;5009060;28;20203;-88
2022/03/19 04:22:15;;;;;;;55.10;36.27;;;3.00;91.80;;;;;;5014245;28;20221;-89
2022/03/19 04:24:42;;;;;;;60.17;37.30;;;2.80;91.80;;;;;;5007844;28;20673;-89
2022/03/19 04:27:10;;;;;;;57.50;37.73;;;2.90;91.70;;;;;;4977310;28;20290;-89
2022/03/19 04:29:37;;;;;;;62.33;39.47;;;2.90;91.50;;;;;;5009023;28;20290;-89
2022/03/19 04:32:05;;;;;;;59.53;38.47;;;3.00;91.40;;;;;;5010555;28;20227;-89
2022/03/19 04:34:32;;;;;;;57.07;36.87;;;2.90;91.40;;;;;;5007525;28;20233;-88
2022/03/19 04:37:00;;;;;;;58.23;36.93;;;2.90;91.60;;;;;;5022709;28;20222;-88
2022/03/19 04:39:28;;;;;;;54.67;35.90;;;2.90;91.30;;;;;;5016663;28;20199;-88
2022/03/19 04:41:55;;;;;;;57.90;36.83;;;2.80;91.30;;;;;;5015977;28;20285;-89
2022/03/19 04:44:22;;;;;;;56.53;37.30;;;2.90;91.30;;;;;;5014891;28;20584;-89
2022/03/19 04:46:49;;;;;;;59.30;38.13;;;2.80;91.40;;;;;;5016463;28;20219;-89
2022/03/19 04:49:16;;;;;;;59.60;38.07;;;2.80;91.40;;;;;;5004986;28;20210;-88
2022/03/19 04:51:43;;;;;;;63.07;37.97;;;2.80;91.20;;;;;;5012135;28;20223;-89
2022/03/19 04:54:12;;;;;;;58.80;36.23;;;2.80;91.20;;;;;;5007434;28;20682;-89
2022/03/19 04:56:39;;;;;;;55.83;36.50;;;2.70;91.30;;;;;;5012430;28;20226;-89
2022/03/19 04:59:06;;;;;;;56.47;36.83;;;2.60;91.50;;;;;;5011578;28;20615;-89
2022/03/19 05:01:34;;;;;;;59.33;37.97;;;2.60;91.60;;;;;;5005428;28;20231;-89
2022/03/19 05:04:04;;;;;;;64.80;37.77;;;2.60;91.80;;;;;;5010260;28;20203;-88
2022/03/19 05:06:31;;;;;;;56.97;37.00;;;2.60;91.90;;;;;;5008006;28;20231;-89
2022/03/19 05:11:45;;;;;;;56.97;35.83;;;2.40;91.80;;;;;;5007270;28;20226;-89
2022/03/19 05:14:13;;;;;;;57.13;37.30;;;2.40;92.20;;;;;;5010843;28;20924;-89
2022/03/19 05:16:40;;;;;;;62.07;36.97;;;2.40;92.00;;;;;;5009706;28;20263;-88
2022/03/19 05:19:08;;;;;;;61.83;38.07;;;2.30;92.10;;;;;;5012100;28;20198;-89
2022/03/19 05:21:35;;;;;;;58.43;37.67;;;2.30;92.50;;;;;;5007060;28;20240;-89
2022/03/19 05:24:02;;;;;;;60.60;37.97;;;2.20;92.60;;;;;;5009064;28;20203;-88
2022/03/19 05:26:29;;;;;;;60.87;37.37;;;2.20;92.90;;;;;;5007061;28;20231;-89
2022/03/19 05:28:58;;;;;;;59.73;36.20;;;2.20;92.80;;;;;;5011834;28;20310;-89
2022/03/19 05:31:25;;;;;;;60.83;37.33;;;2.30;92.60;;;;;;5006768;28;20331;-89
2022/03/19 05:36:38;;;;;;;56.40;36.80;;;2.30;92.30;;;;;;5006410;28;20713;-89
2022/03/19 05:39:05;;;;;;;60.43;36.87;;;2.30;92.30;;;;;;5006741;28;20563;-89
2022/03/19 05:41:34;;;;;;;59.43;38.70;;;2.30;92.20;;;;;;5012137;28;20656;-89
2022/03/19 05:44:03;;;;;;;59.27;35.77;;;2.40;92.20;;;;;;5004241;28;20537;-89
2022/03/19 05:46:30;;;;;;;55.40;36.70;;;2.50;92.20;;;;;;5015925;28;20239;-89
2022/03/19 05:48:57;;;;;;;56.20;36.23;;;2.50;91.90;;;;;;5011759;28;20226;-89
2022/03/19 05:51:24;;;;;;;60.40;37.00;;;2.50;91.70;;;;;;5002815;28;20719;-89
2022/03/19 05:53:52;;;;;;;55.67;36.30;;;2.60;91.70;;;;;;5011628;28;21163;-89
2022/03/19 05:56:19;;;;;;;59.13;36.30;;;2.60;91.50;;;;;;5015257;28;20215;-89
2022/03/19 05:58:46;;;;;;;55.23;35.60;;;2.70;91.30;;;;;;5015071;28;20202;-89
2022/03/19 06:01:14;;;;;;;55.30;35.40;;;2.80;91.10;;;;;;5004515;28;20231;-89
2022/03/19 06:03:42;;;;;;;55.27;35.40;;;2.90;90.70;;;;;;5003744;28;20203;-89
2022/03/19 06:06:10;;;;;;;53.63;35.80;;;2.90;90.40;;;;;;5011576;28;20242;-89
2022/03/19 06:08:37;;;;;;;53.40;35.43;;;3.00;90.40;;;;;;5010414;28;20229;-89
2022/03/19 06:11:04;;;;;;;57.93;35.47;;;3.10;90.10;;;;;;5015470;28;20230;-89
2022/03/19 06:13:31;;;;;;;54.50;34.67;;;3.10;89.30;;;;;;5005199;28;20228;-89
2022/03/19 06:15:58;;;;;;;53.63;34.27;;;3.20;88.90;;;;;;5009256;28;20223;-89
2022/03/19 06:18:27;;;;;;;53.77;36.03;;;3.30;87.90;;;;;;5012366;28;20204;-89
2022/03/19 06:20:56;;;;;;;54.53;34.60;;;3.30;87.90;;;;;;5009560;28;20228;-89
2022/03/19 06:23:23;;;;;;;51.03;33.90;;;3.30;87.90;;;;;;4992989;28;20286;-89
2022/03/19 06:25:50;;;;;;;54.20;35.53;;;3.40;87.50;;;;;;5007879;28;20222;-89
2022/03/19 06:28:18;;;;;;;53.87;34.17;;;3.60;88.10;;;;;;5007808;28;20257;-89
2022/03/19 06:30:45;;;;;;;55.87;35.10;;;3.60;85.00;;;;;;5012029;28;20210;-89
2022/03/19 06:33:12;;;;;;;48.90;32.90;;;3.80;86.40;;;;;;5018684;28;20211;-86
2022/03/19 06:38:30;;;;;;;47.97;32.87;;;3.80;83.20;;;;;;5020024;28;20232;-86
2022/03/19 06:40:58;;;;;;;47.40;31.27;;;3.90;82.80;;;;;;5010261;28;20235;-86
2022/03/19 06:43:27;;;;;;;47.00;32.13;;;3.90;81.70;;;;;;5013816;28;20667;-85
2022/03/19 06:45:57;;;;;;;49.67;31.20;;;4.00;80.60;;;;;;5029327;28;20219;-84
2022/03/19 06:48:24;;;;;;;44.27;30.33;;;4.10;79.90;;;;;;5021233;28;20204;-84
2022/03/19 06:50:54;;;;;;;41.47;29.53;;;4.30;77.00;;;;;;5022362;28;20309;-84
2022/03/19 06:53:21;;;;;;;43.77;30.40;;;4.50;76.10;;;;;;5016227;28;20535;-84
2022/03/19 06:55:49;;;;;;;47.20;29.80;;;4.80;69.50;;;;;;5016423;28;20658;-86
2022/03/19 06:58:16;;;;;;;41.40;28.57;;;5.20;68.10;;;;;;5019026;28;20204;-86
2022/03/19 07:03:30;;;;;;;42.20;27.63;;;6.10;58.70;;;;;;5020514;28;20242;-86
2022/03/19 07:06:12;;;;;;;40.27;27.63;;;6.60;53.50;;;;;;5024106;28;20246;-86
2022/03/19 07:08:39;;;;;;;39.40;27.93;;;7.20;49.40;;;;;;5013334;28;20208;-89
2022/03/19 07:11:07;;;;;;;40.85;26.65;;;7.50;46.30;;;;;;5008788;28;20235;-89
2022/03/19 07:13:34;;;;;;;38.67;26.47;;;7.40;46.20;;;;;;5009079;28;20281;-89
2022/03/19 07:16:01;;;;;;;37.20;25.67;;;6.90;45.80;;;;;;5010609;28;20230;-89
2022/03/19 07:18:28;;;;;;;35.33;25.40;;;6.70;45.70;;;;;;5008304;28;20591;-89
2022/03/19 07:20:55;;;;;;;35.93;24.40;;;6.50;45.50;;;;;;5013586;28;20239;-89
2022/03/19 07:23:25;;;;;;;36.40;24.67;;;6.50;45.50;;;;;;5012701;28;20206;-89
2022/03/19 07:25:52;;;;;;;34.83;24.53;;;6.40;45.40;;;;;;5014408;28;20666;-88
2022/03/19 07:28:20;;;;;;;34.20;23.50;;;6.00;47.60;;;;;;5010568;28;20229;-87
2022/03/19 07:30:48;;;;;;;33.03;23.00;;;5.90;47.40;;;;;;5008010;28;20195;-88
2022/03/19 07:33:16;;;;;;;35.27;23.90;;;6.00;46.80;;;;;;5008148;28;20770;-88
2022/03/19 07:35:44;;;;;;;33.50;23.90;;;5.90;46.60;;;;;;5010866;28;20214;-89
2022/03/19 07:38:18;;;;;;;32.23;23.00;;;6.10;48.30;;;;;;5007575;28;20214;-88
2022/03/19 07:43:32;;;;;;;31.57;22.23;;;6.40;45.40;;;;;;5005861;28;20977;-87
2022/03/19 07:45:59;;;;;;;37.20;22.97;;;6.40;45.40;;;;;;4996839;28;20282;-87
2022/03/19 07:48:26;;;;;;;35.97;21.33;;;6.50;43.90;;;;;;5006627;28;20325;-87
2022/03/19 07:50:54;;;;;;;29.43;20.40;;;6.70;38.90;;;;;;5008021;28;20235;-88
2022/03/19 07:53:21;;;;;;;32.53;21.63;;;7.00;37.80;;;;;;5002246;28;20210;-87
2022/03/19 07:55:53;;;;;;;30.73;21.77;;;7.10;38.30;;;;;;5015121;28;20282;-86
2022/03/19 07:58:20;;;;;;;26.97;19.17;;;7.30;37.40;;;;;;5012187;28;20187;-86
2022/03/19 08:00:48;;;;;;;25.83;19.13;;;7.40;34.80;;;;;;5014366;28;20199;-87
2022/03/19 08:03:15;;;;;;;24.60;18.50;;;7.30;33.80;;;;;;5012479;28;20231;-87
2022/03/19 08:05:43;;;;;;;33.17;19.87;;;7.30;32.90;;;;;;5018266;28;20206;-87
2022/03/19 08:08:11;;;;;;;24.95;18.92;;;7.60;32.50;;;;;;5012840;28;20219;-86
2022/03/19 08:10:39;;;;;;;27.40;18.75;;;8.10;31.90;;;;;;5005423;28;20202;-87
2022/03/19 08:13:10;;;;;;;27.98;18.52;;;8.20;31.00;;;;;;5013189;28;20227;-87
2022/03/19 08:21:40;;;;;;;22.73;16.63;;;8.80;25.20;;;;;;5015046;28;20219;-88
2022/03/19 08:24:13;;;;;;;27.52;17.63;;;8.50;25.30;;;;;;5015794;28;20687;-87
2022/03/19 08:26:42;;;;;;;23.70;17.63;;;8.40;26.50;;;;;;5013309;28;20242;-87
2022/03/19 08:29:13;;;;;;;25.23;17.25;;;8.70;24.10;;;;;;5016888;28;20355;-87
2022/03/19 08:31:41;;;;;;;24.20;17.65;;;8.60;25.10;;;;;;5007939;28;20272;-89
2022/03/19 08:34:08;;;;;;;23.63;16.38;;;8.40;25.50;;;;;;5014062;28;20347;-88
2022/03/19 08:36:36;;;;;;;23.95;17.20;;;8.40;24.00;;;;;;5016986;28;20733;-87
2022/03/19 08:41:48;;;;;;;23.90;17.23;;;8.10;24.30;;;;;;5031557;28;20269;-86
2022/03/19 08:44:18;;;;;;;24.33;17.33;;;8.20;24.60;;;;;;5016669;28;20242;-86
2022/03/19 08:46:48;;;;;;;26.67;17.13;;;8.50;24.00;;;;;;5026351;28;20301;-87
2022/03/19 09:30:28;;;;;;;25.73;22.17;;;13.80;15.80;;;;;;4935458;29;20211;-88
2022/03/19 09:59:15;;;;;;;25.35;19.55;;;17.00;9.40;;;;;;4983944;28;20254;-91
2022/03/19 10:01:51;;;;;;;25.80;19.73;;;17.00;9.40;;;;;;5007642;28;21381;-91
2022/03/19 10:04:20;;;;;;;21.48;18.55;;;17.40;9.30;;;;;;5004772;28;20726;-94
2022/03/19 10:16:09;;;;;;;22.17;18.33;;;17.50;9.30;;;;;;4941180;29;20815;-93
2022/03/19 10:25:21;;;;;;;22.73;19.27;;;16.50;8.70;;;;;;4974721;28;20192;-90
2022/03/19 10:27:51;;;;;;;22.17;18.63;;;16.80;8.90;;;;;;5004434;28;20323;-91
2022/03/19 10:30:20;;;;;;;23.20;19.45;;;16.70;8.80;;;;;;5005178;28;20203;-91
2022/03/19 10:32:56;;;;;;;21.02;18.60;;;16.40;8.70;;;;;;5005034;28;20228;-90
2022/03/19 10:38:19;;;;;;;19.80;17.70;;;17.00;9.00;;;;;;4977767;28;20296;-91
2022/03/19 10:40:51;;;;;;;20.10;17.92;;;17.30;9.20;;;;;;4985731;28;20195;-90
2022/03/19 10:43:22;;;;;;;20.02;17.88;;;17.00;9.00;;;;;;5010920;28;20223;-90
2022/03/19 10:46:10;;;;;;;22.33;17.48;;;16.70;8.90;;;;;;5019610;28;20227;-90
2022/03/19 10:48:42;;;;;;;19.48;16.60;;;16.80;8.90;;;;;;4985819;28;20230;-91
2022/03/19 10:51:12;;;;;;;19.42;16.50;;;16.80;8.90;;;;;;5004032;28;20231;-89
2022/03/19 10:53:40;;;;;;;16.60;14.80;;;16.60;8.80;;;;;;5000914;28;20200;-89
2022/03/19 10:56:08;;;;;;;17.60;15.75;;;16.40;8.70;;;;;;5002757;28;20243;-89
2022/03/19 10:58:35;;;;;;;17.83;15.77;;;16.70;8.80;;;;;;4994219;28;20212;-90
2022/03/19 11:01:03;;;;;;;19.02;15.68;;;16.60;8.80;;;;;;4966638;28;20227;-91
2022/03/19 11:03:31;;;;;;;19.73;15.65;;;16.00;8.40;;;;;;4995481;28;20240;-90
2022/03/19 11:06:08;;;;;;;17.73;15.18;;;16.30;8.60;;;;;;4974404;28;20264;-91
2022/03/19 11:08:55;;;;;;;18.27;14.63;;;16.40;8.70;;;;;;4998672;28;20250;-89
2022/03/19 11:12:01;;;;;;;18.33;14.40;;;16.30;8.60;;;;;;4993834;28;20448;-89
2022/03/19 12:04:10;;;;;;;15.88;12.77;;;11.60;13.50;;;;;;4957793;28;20192;-90
2022/03/19 12:30:02;;;;;;;18.75;14.00;;;10.90;14.30;;;;;;4924688;29;20202;-89
2022/03/19 12:35:15;;;;;;;19.08;14.27;;;10.90;13.50;;;;;;4974742;28;20579;-86
2022/03/19 12:37:54;;;;;;;19.13;13.38;;;10.90;13.50;;;;;;4979674;28;20344;-87
2022/03/19 12:46:43;;;;;;;16.05;13.48;;;10.80;13.30;;;;;;4929116;28;20232;-88
2022/03/19 12:49:19;;;;;;;20.35;14.55;;;10.70;13.60;;;;;;4976939;28;20212;-89
2022/03/19 13:02:06;;;;;;;20.00;16.17;;;10.80;13.90;;;;;;4987686;28;20226;-90
2022/03/19 13:04:35;;;;;;;23.02;17.33;;;10.60;15.40;;;;;;4978986;28;20247;-85
2022/03/19 13:07:06;;;;;;;20.05;15.27;;;10.40;14.80;;;;;;4958100;28;20313;-84
2022/03/19 13:09:41;;;;;;;20.58;15.85;;;10.70;17.50;;;;;;4975603;28;20224;-83
2022/03/19 13:12:11;;;;;;;21.98;16.50;;;10.90;14.40;;;;;;4964133;28;20260;-88
2022/03/19 13:17:57;;;;;;;21.65;17.17;;;10.80;14.40;;;;;;4939212;28;20217;-90
2022/03/19 13:20:27;;;;;;;24.67;17.58;;;10.80;14.80;;;;;;4987461;28;20215;-89
2022/03/19 13:23:00;;;;;;;26.85;16.83;;;10.70;14.70;;;;;;4983291;28;20318;-90
2022/03/19 13:25:29;;;;;;;24.42;17.33;;;10.60;15.00;;;;;;4974397;28;20228;-90
2022/03/19 13:34:24;;;;;;;21.80;15.45;;;10.70;14.00;;;;;;4947214;28;20210;-89
2022/03/19 13:36:58;;;;;;;21.27;15.73;;;10.40;14.10;;;;;;4972038;28;20230;-89
2022/03/19 13:39:30;;;;;;;21.75;14.02;;;10.60;14.30;;;;;;4959960;28;20224;-90
2022/03/19 13:42:05;;;;;;;18.23;14.15;;;10.50;13.40;;;;;;4969748;28;20450;-93
2022/03/19 13:53:07;;;;;;;18.52;13.93;;;10.30;12.50;;;;;;4959546;28;20220;-88
2022/03/19 13:55:37;;;;;;;17.33;13.63;;;10.20;12.20;;;;;;4962093;29;20251;-87
2022/03/19 13:58:06;;;;;;;16.90;12.93;;;10.20;12.50;;;;;;4970014;28;20316;-87
2022/03/19 14:00:37;;;;;;;17.85;12.88;;;10.40;12.10;;;;;;4983125;28;20196;-90
2022/03/19 14:03:08;;;;;;;17.77;13.10;;;10.50;12.80;;;;;;4982844;28;20229;-88
2022/03/19 14:05:37;;;;;;;17.65;13.27;;;10.50;12.00;;;;;;5001157;28;20531;-89
2022/03/19 14:08:07;;;;;;;16.70;12.95;;;10.40;12.20;;;;;;4971343;28;20482;-88
2022/03/19 14:10:36;;;;;;;14.82;11.48;;;10.30;11.90;;;;;;4980902;28;20201;-87
2022/03/19 14:13:06;;;;;;;16.15;12.60;;;10.20;11.10;;;;;;4969118;28;20576;-86
2022/03/19 14:15:38;;;;;;;16.50;12.93;;;10.20;11.00;;;;;;4989491;28;20315;-85
2022/03/19 14:18:22;;;;;;;18.73;14.27;;;10.20;11.40;;;;;;4974292;28;20239;-88
2022/03/19 14:20:49;;;;;;;18.65;13.13;;;10.30;11.90;;;;;;4983814;28;20203;-87
2022/03/19 14:23:17;;;;;;;17.25;13.25;;;10.20;11.70;;;;;;4985122;28;20205;-89
2022/03/19 14:25:45;;;;;;;21.13;13.73;;;10.10;12.20;;;;;;4970341;28;20201;-88
2022/03/19 14:28:15;;;;;;;18.58;13.65;;;10.00;12.50;;;;;;4972611;28;20275;-87
2022/03/19 14:30:43;;;;;;;18.38;14.27;;;10.20;12.70;;;;;;4986267;28;20205;-89
2022/03/19 14:33:13;;;;;;;17.77;14.18;;;10.30;13.40;;;;;;4967526;28;20568;-87
2022/03/19 14:35:55;;;;;;;20.20;15.50;;;10.30;13.30;;;;;;4979448;28;20240;-85
2022/03/19 14:38:36;;;;;;;18.83;14.73;;;10.40;13.10;;;;;;4983560;28;20240;-85
2022/03/19 14:41:07;;;;;;;23.17;15.55;;;10.40;13.20;;;;;;4996030;28;20228;-86
2022/03/19 14:43:56;;;;;;;21.50;16.17;;;10.60;13.70;;;;;;5001114;28;20208;-88
2022/03/19 14:51:57;;;;;;;25.50;19.92;;;10.70;16.30;;;;;;4980304;28;20224;-88
2022/03/19 14:54:25;;;;;;;25.55;19.35;;;10.40;16.80;;;;;;4957725;28;20656;-87
2022/03/19 14:56:52;;;;;;;29.48;21.77;;;10.30;17.80;;;;;;4983028;28;20265;-89
2022/03/19 14:59:19;;;;;;;27.05;20.80;;;10.10;18.40;;;;;;4984323;28;20206;-89
2022/03/19 15:01:47;;;;;;;27.95;20.65;;;10.20;18.50;;;;;;4973856;28;20267;-90
2022/03/19 15:10:39;;;;;;;29.58;23.52;;;10.20;19.60;;;;;;4965323;28;20209;-91
2022/03/19 15:18:42;;;;;;;32.35;24.08;;;10.40;20.50;;;;;;5038054;28;20211;-87
2022/03/19 15:24:24;;;;;;;32.00;25.45;;;10.20;23.20;;;;;;5046264;28;20296;-91
2022/03/19 15:29:43;;;;;;;32.90;24.75;;;10.00;23.60;;;;;;5022439;28;20200;-92
2022/03/19 15:35:19;;;;;;;31.63;24.00;;;10.00;23.60;;;;;;4982284;28;20209;-87
2022/03/19 15:37:50;;;;;;;33.47;26.10;;;10.00;23.60;;;;;;5021366;28;20239;-87
2022/03/19 15:40:17;;;;;;;30.58;24.50;;;9.90;25.00;;;;;;5017800;28;20581;-87
2022/03/19 15:42:46;;;;;;;32.83;25.42;;;9.70;24.80;;;;;;5010030;28;20243;-87
2022/03/19 15:45:13;;;;;;;36.78;26.10;;;9.70;24.80;;;;;;5014405;28;20199;-88
2022/03/19 15:47:42;;;;;;;30.65;24.65;;;9.70;24.80;;;;;;5018100;28;20310;-87
2022/03/19 15:50:11;;;;;;;28.77;23.52;;;9.60;24.70;;;;;;5019150;28;20227;-87
2022/03/19 15:52:38;;;;;;;34.25;24.75;;;9.60;24.80;;;;;;5013227;28;20855;-88
2022/03/19 15:55:08;;;;;;;31.50;24.80;;;9.50;24.70;;;;;;5019605;28;20225;-87
2022/03/19 15:57:35;;;;;;;32.88;24.15;;;9.40;24.60;;;;;;5013554;28;20744;-87
2022/03/19 16:00:03;;;;;;;31.77;24.77;;;9.40;25.40;;;;;;5015257;28;20204;-87
2022/03/19 16:02:31;;;;;;;31.63;24.02;;;9.30;25.40;;;;;;5012142;28;20226;-87
2022/03/19 16:04:58;;;;;;;31.63;24.33;;;9.30;25.10;;;;;;5007532;28;20204;-89
2022/03/19 16:07:26;;;;;;;31.23;23.98;;;9.10;24.50;;;;;;5005946;28;20227;-87
2022/03/19 16:09:53;;;;;;;31.75;24.05;;;9.00;25.30;;;;;;5017267;28;20229;-88
2022/03/19 16:12:22;;;;;;;31.20;24.17;;;8.80;25.90;;;;;;5009429;28;20251;-87
2022/03/19 16:14:54;;;;;;;30.80;24.30;;;8.90;25.90;;;;;;5013578;28;20203;-87
2022/03/19 16:17:24;;;;;;;30.85;23.77;;;8.90;25.90;;;;;;5019048;28;20227;-89
2022/03/19 16:19:58;;;;;;;31.80;23.50;;;8.80;26.20;;;;;;5012750;28;20199;-87
2022/03/19 16:22:25;;;;;;;28.63;22.20;;;8.80;26.40;;;;;;5016040;28;20234;-87
2022/03/19 16:24:52;;;;;;;33.00;23.73;;;8.80;26.40;;;;;;5015450;28;20698;-87
2022/03/19 16:27:20;;;;;;;30.15;23.40;;;8.70;26.80;;;;;;5018053;28;20227;-87
2022/03/19 16:29:51;;;;;;;31.95;23.60;;;8.70;26.40;;;;;;5013661;28;20215;-87
2022/03/19 16:32:18;;;;;;;30.27;24.05;;;8.80;26.50;;;;;;5018081;28;20227;-87
2022/03/19 16:34:45;;;;;;;29.48;22.90;;;8.70;26.70;;;;;;5018216;28;20199;-86
2022/03/19 16:37:14;;;;;;;29.50;22.88;;;8.70;26.70;;;;;;5014740;28;20223;-87
2022/03/19 16:39:41;;;;;;;30.90;23.60;;;8.70;26.90;;;;;;5014266;28;20212;-87
2022/03/19 16:42:09;;;;;;;32.05;24.25;;;8.70;27.40;;;;;;5014101;28;20226;-87
2022/03/19 16:44:36;;;;;;;35.53;24.17;;;8.60;27.70;;;;;;5000982;28;20196;-85
2022/03/19 16:47:06;;;;;;;31.00;24.05;;;8.50;28.50;;;;;;5002540;28;20218;-87
2022/03/19 16:49:34;;;;;;;30.63;23.77;;;8.50;28.60;;;;;;5017717;28;20211;-87
2022/03/19 16:52:01;;;;;;;32.17;23.98;;;8.50;28.40;;;;;;5018763;28;20239;-87
2022/03/19 16:54:42;;;;;;;30.67;22.98;;;8.50;28.30;;;;;;5011206;28;20213;-87
2022/03/19 16:57:09;;;;;;;31.92;23.40;;;8.50;28.40;;;;;;5015541;28;20231;-88